sensor_id;sensor_type;location;lat;lon;timestamp;P1;durP1;ratioP1;P2;durP2;ratioP2
60718;SDS011;46567;51.660;5.824;2023-11-21T00:02:05;12.7;;;5.0;;
60718;SDS011;46567;51.660;5.824;2023-11-21T00:07:06;12.7;;;4.5;;
60718;SDS011;46567;51.660;5.824;2023-11-21T00:12:06;13.4;;;5.2;;
60718;SDS011;46567;51.660;5.824;2023-11-21T00:17:06;10.8;;;5.3;;
60718;SDS011;46567;51.660;5.824;2023-11-21T00:22:05;14.7;;;5.7;;
60718;SDS011;46567;51.660;5.824;2023-11-21T00:27:05;13.2;;;5.6;;
60718;SDS011;46567;51.660;5.824;2023-11-21T00:32:05;10.9;;;5.1;;
60718;SDS011;46567;51.660;5.824;2023-11-21T00:37:06;13.5;;;5.4;;
60718;SDS011;46567;51.660;5.824;2023-11-21T00:47:06;11.0;;;5.3;;
60718;SDS011;46567;51.660;5.824;2023-11-21T00:52:06;8.9;;;4.7;;
60718;SDS011;46567;51.660;5.824;2023-11-21T00:57:06;11.8;;;4.9;;
60718;SDS011;46567;51.660;5.824;2023-11-21T01:02:05;11.7;;;5.3;;
60718;SDS011;46567;51.660;5.824;2023-11-21T01:07:05;9.9;;;5.2;;
60718;SDS011;46567;51.660;5.824;2023-11-21T01:12:05;12.3;;;5.8;;
60718;SDS011;46567;51.660;5.824;2023-11-21T01:17:06;10.7;;;5.1;;
60718;SDS011;46567;51.660;5.824;2023-11-21T01:22:06;10.1;;;5.0;;
60718;SDS011;46567;51.660;5.824;2023-11-21T01:27:05;11.8;;;5.8;;
60718;SDS011;46567;51.660;5.824;2023-11-21T01:37:05;12.2;;;5.7;;
60718;SDS011;46567;51.660;5.824;2023-11-21T01:42:06;14.9;;;6.0;;
60718;SDS011;46567;51.660;5.824;2023-11-21T01:47:06;12.2;;;5.7;;
60718;SDS011;46567;51.660;5.824;2023-11-21T01:52:06;10.3;;;5.2;;
60718;SDS011;46567;51.660;5.824;2023-11-21T02:02:06;14.6;;;6.1;;
60718;SDS011;46567;51.660;5.824;2023-11-21T02:07:05;14.5;;;6.2;;
60718;SDS011;46567;51.660;5.824;2023-11-21T02:12:05;17.2;;;6.8;;
60718;SDS011;46567;51.660;5.824;2023-11-21T02:17:06;21.6;;;5.8;;
60718;SDS011;46567;51.660;5.824;2023-11-21T02:22:05;12.6;;;5.8;;
60718;SDS011;46567;51.660;5.824;2023-11-21T02:27:19;22.8;;;7.2;;
60718;SDS011;46567;51.660;5.824;2023-11-21T02:32:05;19.8;;;5.9;;
60718;SDS011;46567;51.660;5.824;2023-11-21T02:37:06;14.1;;;6.7;;
60718;SDS011;46567;51.660;5.824;2023-11-21T02:42:06;24.9;;;6.5;;
60718;SDS011;46567;51.660;5.824;2023-11-21T02:47:06;12.3;;;6.1;;
60718;SDS011;46567;51.660;5.824;2023-11-21T02:52:05;9.2;;;5.5;;
60718;SDS011;46567;51.660;5.824;2023-11-21T02:57:06;17.5;;;6.4;;
60718;SDS011;46567;51.660;5.824;2023-11-21T03:02:05;11.9;;;6.2;;
60718;SDS011;46567;51.660;5.824;2023-11-21T03:07:06;13.7;;;5.8;;
60718;SDS011;46567;51.660;5.824;2023-11-21T03:12:05;10.7;;;5.6;;
60718;SDS011;46567;51.660;5.824;2023-11-21T03:17:06;16.7;;;6.6;;
60718;SDS011;46567;51.660;5.824;2023-11-21T03:27:06;12.6;;;5.5;;
60718;SDS011;46567;51.660;5.824;2023-11-21T03:32:06;17.2;;;6.3;;
60718;SDS011;46567;51.660;5.824;2023-11-21T03:37:06;12.1;;;5.5;;
60718;SDS011;46567;51.660;5.824;2023-11-21T03:42:05;15.5;;;6.0;;
60718;SDS011;46567;51.660;5.824;2023-11-21T03:47:05;13.9;;;6.2;;
60718;SDS011;46567;51.660;5.824;2023-11-21T03:52:06;12.8;;;5.9;;
60718;SDS011;46567;51.660;5.824;2023-11-21T03:57:06;15.7;;;6.8;;
60718;SDS011;46567;51.660;5.824;2023-11-21T04:02:05;14.9;;;6.7;;
60718;SDS011;46567;51.660;5.824;2023-11-21T04:07:06;16.9;;;6.4;;
60718;SDS011;46567;51.660;5.824;2023-11-21T04:12:06;15.2;;;6.0;;
60718;SDS011;46567;51.660;5.824;2023-11-21T04:22:06;14.5;;;6.4;;
60718;SDS011;46567;51.660;5.824;2023-11-21T04:27:06;16.1;;;6.2;;
60718;SDS011;46567;51.660;5.824;2023-11-21T04:32:06;19.6;;;6.8;;
60718;SDS011;46567;51.660;5.824;2023-11-21T04:37:06;13.1;;;5.7;;
60718;SDS011;46567;51.660;5.824;2023-11-21T04:42:06;13.1;;;5.8;;
60718;SDS011;46567;51.660;5.824;2023-11-21T04:47:06;16.4;;;5.7;;
60718;SDS011;46567;51.660;5.824;2023-11-21T04:52:06;12.7;;;6.0;;
60718;SDS011;46567;51.660;5.824;2023-11-21T04:57:06;17.9;;;6.1;;
60718;SDS011;46567;51.660;5.824;2023-11-21T05:02:06;12.1;;;6.4;;
60718;SDS011;46567;51.660;5.824;2023-11-21T05:07:06;14.5;;;6.2;;
60718;SDS011;46567;51.660;5.824;2023-11-21T05:12:06;15.0;;;6.2;;
60718;SDS011;46567;51.660;5.824;2023-11-21T05:17:06;13.7;;;6.1;;
60718;SDS011;46567;51.660;5.824;2023-11-21T05:22:06;15.1;;;6.3;;
60718;SDS011;46567;51.660;5.824;2023-11-21T05:27:06;10.4;;;5.7;;
60718;SDS011;46567;51.660;5.824;2023-11-21T05:32:06;15.7;;;7.1;;
60718;SDS011;46567;51.660;5.824;2023-11-21T05:37:06;13.1;;;6.8;;
60718;SDS011;46567;51.660;5.824;2023-11-21T05:42:06;13.3;;;6.6;;
60718;SDS011;46567;51.660;5.824;2023-11-21T05:47:06;13.2;;;6.3;;
60718;SDS011;46567;51.660;5.824;2023-11-21T05:52:06;14.6;;;6.6;;
60718;SDS011;46567;51.660;5.824;2023-11-21T05:57:06;11.2;;;6.1;;
60718;SDS011;46567;51.660;5.824;2023-11-21T06:02:06;12.9;;;6.1;;
60718;SDS011;46567;51.660;5.824;2023-11-21T06:07:06;11.8;;;5.6;;
60718;SDS011;46567;51.660;5.824;2023-11-21T06:12:06;14.0;;;6.5;;
60718;SDS011;46567;51.660;5.824;2023-11-21T06:17:06;10.9;;;5.8;;
60718;SDS011;46567;51.660;5.824;2023-11-21T06:22:06;11.5;;;6.3;;
60718;SDS011;46567;51.660;5.824;2023-11-21T06:32:06;11.0;;;6.5;;
60718;SDS011;46567;51.660;5.824;2023-11-21T06:37:06;12.0;;;6.4;;
60718;SDS011;46567;51.660;5.824;2023-11-21T06:42:06;11.4;;;5.8;;
60718;SDS011;46567;51.660;5.824;2023-11-21T06:47:06;9.7;;;6.0;;
60718;SDS011;46567;51.660;5.824;2023-11-21T06:52:06;13.7;;;6.0;;
60718;SDS011;46567;51.660;5.824;2023-11-21T07:02:06;11.6;;;5.6;;
60718;SDS011;46567;51.660;5.824;2023-11-21T07:07:06;12.0;;;6.0;;
60718;SDS011;46567;51.660;5.824;2023-11-21T07:22:06;13.8;;;6.6;;
60718;SDS011;46567;51.660;5.824;2023-11-21T07:27:06;12.5;;;6.2;;
60718;SDS011;46567;51.660;5.824;2023-11-21T07:32:06;12.7;;;6.7;;
60718;SDS011;46567;51.660;5.824;2023-11-21T07:37:06;11.6;;;6.6;;
60718;SDS011;46567;51.660;5.824;2023-11-21T07:42:06;14.0;;;6.1;;
60718;SDS011;46567;51.660;5.824;2023-11-21T07:47:19;13.3;;;6.0;;
60718;SDS011;46567;51.660;5.824;2023-11-21T07:52:06;11.4;;;6.5;;
60718;SDS011;46567;51.660;5.824;2023-11-21T07:57:06;13.9;;;6.9;;
60718;SDS011;46567;51.660;5.824;2023-11-21T08:02:06;11.6;;;6.5;;
60718;SDS011;46567;51.660;5.824;2023-11-21T08:07:06;12.1;;;6.2;;
60718;SDS011;46567;51.660;5.824;2023-11-21T08:12:06;14.9;;;6.9;;
60718;SDS011;46567;51.660;5.824;2023-11-21T08:17:06;16.4;;;6.6;;
60718;SDS011;46567;51.660;5.824;2023-11-21T08:22:06;14.4;;;6.8;;
60718;SDS011;46567;51.660;5.824;2023-11-21T08:27:06;12.1;;;6.7;;
60718;SDS011;46567;51.660;5.824;2023-11-21T08:32:06;13.3;;;6.3;;
60718;SDS011;46567;51.660;5.824;2023-11-21T08:37:06;11.2;;;6.6;;
60718;SDS011;46567;51.660;5.824;2023-11-21T08:42:06;11.1;;;6.3;;
60718;SDS011;46567;51.660;5.824;2023-11-21T08:47:06;12.7;;;6.2;;
60718;SDS011;46567;51.660;5.824;2023-11-21T08:52:06;9.9;;;6.0;;
60718;SDS011;46567;51.660;5.824;2023-11-21T08:57:06;13.0;;;5.9;;
60718;SDS011;46567;51.660;5.824;2023-11-21T09:02:06;9.4;;;5.3;;
60718;SDS011;46567;51.660;5.824;2023-11-21T09:07:06;11.5;;;5.9;;
60718;SDS011;46567;51.660;5.824;2023-11-21T09:12:06;12.5;;;6.9;;
60718;SDS011;46567;51.660;5.824;2023-11-21T09:17:06;10.9;;;5.9;;
60718;SDS011;46567;51.660;5.824;2023-11-21T09:22:06;10.9;;;5.9;;
60718;SDS011;46567;51.660;5.824;2023-11-21T09:27:06;11.9;;;6.4;;
60718;SDS011;46567;51.660;5.824;2023-11-21T09:32:06;11.1;;;6.4;;
60718;SDS011;46567;51.660;5.824;2023-11-21T09:37:06;13.6;;;6.7;;
60718;SDS011;46567;51.660;5.824;2023-11-21T09:42:30;11.4;;;5.7;;
60718;SDS011;46567;51.660;5.824;2023-11-21T09:47:06;15.0;;;6.8;;
60718;SDS011;46567;51.660;5.824;2023-11-21T09:52:06;13.0;;;6.6;;
60718;SDS011;46567;51.660;5.824;2023-11-21T10:02:06;17.0;;;7.6;;
60718;SDS011;46567;51.660;5.824;2023-11-21T10:07:06;14.6;;;7.2;;
60718;SDS011;46567;51.660;5.824;2023-11-21T10:12:06;15.5;;;7.5;;
60718;SDS011;46567;51.660;5.824;2023-11-21T10:17:06;18.0;;;8.2;;
60718;SDS011;46567;51.660;5.824;2023-11-21T10:27:06;16.6;;;7.9;;
60718;SDS011;46567;51.660;5.824;2023-11-21T10:32:06;16.4;;;7.8;;
60718;SDS011;46567;51.660;5.824;2023-11-21T10:37:11;14.3;;;7.4;;
60718;SDS011;46567;51.660;5.824;2023-11-21T10:42:07;17.9;;;8.3;;
60718;SDS011;46567;51.660;5.824;2023-11-21T10:47:06;16.6;;;7.5;;
60718;SDS011;46567;51.660;5.824;2023-11-21T10:52:06;18.0;;;8.6;;
60718;SDS011;46567;51.660;5.824;2023-11-21T10:57:06;18.9;;;8.7;;
60718;SDS011;46567;51.660;5.824;2023-11-21T11:02:07;20.6;;;8.4;;
60718;SDS011;46567;51.660;5.824;2023-11-21T11:07:06;22.0;;;9.2;;
60718;SDS011;46567;51.660;5.824;2023-11-21T11:12:06;23.1;;;9.2;;
60718;SDS011;46567;51.660;5.824;2023-11-21T11:32:03;18.2;;;8.7;;
60718;SDS011;46567;51.660;5.824;2023-11-21T11:37:13;17.4;;;8.5;;
60718;SDS011;46567;51.660;5.824;2023-11-21T11:37:35;20.9;;;8.3;;
60718;SDS011;46567;51.660;5.824;2023-11-21T11:42:07;21.0;;;8.1;;
60718;SDS011;46567;51.660;5.824;2023-11-21T11:47:10;17.6;;;8.2;;
60718;SDS011;46567;51.660;5.824;2023-11-21T11:52:32;16.1;;;7.4;;
60718;SDS011;46567;51.660;5.824;2023-11-21T11:57:06;13.1;;;6.8;;
60718;SDS011;46567;51.660;5.824;2023-11-21T12:02:06;12.4;;;6.6;;
60718;SDS011;46567;51.660;5.824;2023-11-21T12:07:06;14.6;;;7.7;;
60718;SDS011;46567;51.660;5.824;2023-11-21T12:12:06;24.8;;;8.1;;
60718;SDS011;46567;51.660;5.824;2023-11-21T12:17:06;23.8;;;8.5;;
60718;SDS011;46567;51.660;5.824;2023-11-21T12:22:06;19.7;;;8.5;;
60718;SDS011;46567;51.660;5.824;2023-11-21T12:27:06;21.2;;;9.0;;
60718;SDS011;46567;51.660;5.824;2023-11-21T12:32:06;19.5;;;8.5;;
60718;SDS011;46567;51.660;5.824;2023-11-21T12:37:06;18.1;;;8.2;;
60718;SDS011;46567;51.660;5.824;2023-11-21T12:42:06;19.3;;;8.2;;
60718;SDS011;46567;51.660;5.824;2023-11-21T12:47:06;13.5;;;7.5;;
60718;SDS011;46567;51.660;5.824;2023-11-21T12:52:06;18.1;;;7.0;;
60718;SDS011;46567;51.660;5.824;2023-11-21T12:57:06;16.3;;;7.5;;
60718;SDS011;46567;51.660;5.824;2023-11-21T13:02:06;15.2;;;7.6;;
60718;SDS011;46567;51.660;5.824;2023-11-21T13:07:06;17.8;;;8.5;;
60718;SDS011;46567;51.660;5.824;2023-11-21T13:12:06;14.8;;;7.1;;
60718;SDS011;46567;51.660;5.824;2023-11-21T13:17:06;14.9;;;7.5;;
60718;SDS011;46567;51.660;5.824;2023-11-21T13:27:06;14.1;;;8.0;;
60718;SDS011;46567;51.660;5.824;2023-11-21T13:32:06;16.1;;;7.2;;
60718;SDS011;46567;51.660;5.824;2023-11-21T13:37:06;15.8;;;7.1;;
60718;SDS011;46567;51.660;5.824;2023-11-21T13:42:06;12.9;;;5.9;;
60718;SDS011;46567;51.660;5.824;2023-11-21T13:52:06;11.2;;;5.5;;
60718;SDS011;46567;51.660;5.824;2023-11-21T13:57:06;9.7;;;5.2;;
60718;SDS011;46567;51.660;5.824;2023-11-21T14:02:06;9.9;;;4.8;;
60718;SDS011;46567;51.660;5.824;2023-11-21T14:07:06;10.2;;;4.7;;
60718;SDS011;46567;51.660;5.824;2023-11-21T14:12:06;9.6;;;4.8;;
60718;SDS011;46567;51.660;5.824;2023-11-21T14:17:06;9.6;;;5.3;;
60718;SDS011;46567;51.660;5.824;2023-11-21T14:22:06;10.6;;;5.7;;
60718;SDS011;46567;51.660;5.824;2023-11-21T14:27:06;12.0;;;6.9;;
60718;SDS011;46567;51.660;5.824;2023-11-21T14:32:06;13.1;;;6.9;;
60718;SDS011;46567;51.660;5.824;2023-11-21T14:37:06;15.3;;;6.8;;
60718;SDS011;46567;51.660;5.824;2023-11-21T14:42:06;13.6;;;6.8;;
60718;SDS011;46567;51.660;5.824;2023-11-21T14:47:06;14.4;;;6.0;;
60718;SDS011;46567;51.660;5.824;2023-11-21T14:52:06;14.7;;;7.0;;
60718;SDS011;46567;51.660;5.824;2023-11-21T15:12:06;12.7;;;6.2;;
60718;SDS011;46567;51.660;5.824;2023-11-21T15:17:06;13.5;;;6.2;;
60718;SDS011;46567;51.660;5.824;2023-11-21T15:27:06;14.2;;;5.5;;
60718;SDS011;46567;51.660;5.824;2023-11-21T15:32:06;10.6;;;5.0;;
60718;SDS011;46567;51.660;5.824;2023-11-21T15:37:19;13.2;;;4.7;;
60718;SDS011;46567;51.660;5.824;2023-11-21T15:42:06;11.7;;;4.8;;
60718;SDS011;46567;51.660;5.824;2023-11-21T15:47:06;11.9;;;4.7;;
60718;SDS011;46567;51.660;5.824;2023-11-21T15:52:06;8.9;;;4.4;;
60718;SDS011;46567;51.660;5.824;2023-11-21T15:57:06;13.5;;;5.0;;
60718;SDS011;46567;51.660;5.824;2023-11-21T16:02:06;12.2;;;5.2;;
60718;SDS011;46567;51.660;5.824;2023-11-21T16:07:06;13.1;;;4.7;;
60718;SDS011;46567;51.660;5.824;2023-11-21T16:12:06;13.4;;;4.9;;
60718;SDS011;46567;51.660;5.824;2023-11-21T16:17:06;13.7;;;5.9;;
60718;SDS011;46567;51.660;5.824;2023-11-21T16:22:06;14.7;;;6.9;;
60718;SDS011;46567;51.660;5.824;2023-11-21T16:27:06;12.6;;;6.6;;
60718;SDS011;46567;51.660;5.824;2023-11-21T16:32:06;13.4;;;7.0;;
60718;SDS011;46567;51.660;5.824;2023-11-21T16:37:06;12.4;;;7.1;;
60718;SDS011;46567;51.660;5.824;2023-11-21T16:42:06;11.8;;;6.5;;
60718;SDS011;46567;51.660;5.824;2023-11-21T16:47:06;10.9;;;6.2;;
60718;SDS011;46567;51.660;5.824;2023-11-21T16:52:06;11.3;;;6.3;;
60718;SDS011;46567;51.660;5.824;2023-11-21T17:02:06;9.5;;;5.3;;
60718;SDS011;46567;51.660;5.824;2023-11-21T17:07:06;10.0;;;5.5;;
60718;SDS011;46567;51.660;5.824;2023-11-21T17:12:06;12.3;;;5.6;;
60718;SDS011;46567;51.660;5.824;2023-11-21T17:17:06;9.5;;;5.7;;
60718;SDS011;46567;51.660;5.824;2023-11-21T17:22:06;10.2;;;6.1;;
60718;SDS011;46567;51.660;5.824;2023-11-21T17:27:06;11.1;;;6.8;;
60718;SDS011;46567;51.660;5.824;2023-11-21T17:32:06;12.3;;;7.1;;
60718;SDS011;46567;51.660;5.824;2023-11-21T17:37:06;17.3;;;5.6;;
60718;SDS011;46567;51.660;5.824;2023-11-21T17:42:06;11.5;;;5.9;;
60718;SDS011;46567;51.660;5.824;2023-11-21T17:47:06;9.5;;;6.4;;
60718;SDS011;46567;51.660;5.824;2023-11-21T17:52:06;12.2;;;6.3;;
60718;SDS011;46567;51.660;5.824;2023-11-21T17:57:06;11.6;;;6.5;;
60718;SDS011;46567;51.660;5.824;2023-11-21T18:02:06;11.1;;;5.8;;
60718;SDS011;46567;51.660;5.824;2023-11-21T18:07:06;9.9;;;6.3;;
60718;SDS011;46567;51.660;5.824;2023-11-21T18:12:07;11.7;;;6.2;;
60718;SDS011;46567;51.660;5.824;2023-11-21T18:17:06;10.7;;;5.9;;
60718;SDS011;46567;51.660;5.824;2023-11-21T18:22:06;11.9;;;6.1;;
60718;SDS011;46567;51.660;5.824;2023-11-21T18:27:06;12.4;;;6.5;;
60718;SDS011;46567;51.660;5.824;2023-11-21T18:32:06;9.7;;;5.3;;
60718;SDS011;46567;51.660;5.824;2023-11-21T18:42:06;10.9;;;6.0;;
60718;SDS011;46567;51.660;5.824;2023-11-21T18:47:06;11.1;;;5.8;;
60718;SDS011;46567;51.660;5.824;2023-11-21T18:52:06;11.4;;;6.0;;
60718;SDS011;46567;51.660;5.824;2023-11-21T19:02:06;10.3;;;5.8;;
60718;SDS011;46567;51.660;5.824;2023-11-21T19:07:06;11.3;;;5.9;;
60718;SDS011;46567;51.660;5.824;2023-11-21T19:12:06;10.3;;;5.5;;
60718;SDS011;46567;51.660;5.824;2023-11-21T19:17:06;10.9;;;5.5;;
60718;SDS011;46567;51.660;5.824;2023-11-21T19:22:06;11.3;;;6.2;;
60718;SDS011;46567;51.660;5.824;2023-11-21T19:27:06;12.9;;;7.0;;
60718;SDS011;46567;51.660;5.824;2023-11-21T19:32:06;10.6;;;5.6;;
60718;SDS011;46567;51.660;5.824;2023-11-21T19:37:06;10.8;;;5.7;;
60718;SDS011;46567;51.660;5.824;2023-11-21T19:42:06;9.3;;;4.9;;
60718;SDS011;46567;51.660;5.824;2023-11-21T19:47:06;11.7;;;6.1;;
60718;SDS011;46567;51.660;5.824;2023-11-21T19:52:06;11.2;;;5.2;;
60718;SDS011;46567;51.660;5.824;2023-11-21T19:57:06;10.7;;;5.6;;
60718;SDS011;46567;51.660;5.824;2023-11-21T20:07:06;10.4;;;5.5;;
60718;SDS011;46567;51.660;5.824;2023-11-21T20:12:06;11.1;;;5.3;;
60718;SDS011;46567;51.660;5.824;2023-11-21T20:17:19;9.4;;;5.3;;
60718;SDS011;46567;51.660;5.824;2023-11-21T20:22:06;9.5;;;5.4;;
60718;SDS011;46567;51.660;5.824;2023-11-21T20:27:06;13.5;;;5.5;;
60718;SDS011;46567;51.660;5.824;2023-11-21T20:32:19;8.9;;;4.8;;
60718;SDS011;46567;51.660;5.824;2023-11-21T20:37:06;10.7;;;5.2;;
60718;SDS011;46567;51.660;5.824;2023-11-21T20:42:06;9.7;;;5.1;;
60718;SDS011;46567;51.660;5.824;2023-11-21T20:47:06;9.3;;;4.6;;
60718;SDS011;46567;51.660;5.824;2023-11-21T20:57:06;8.3;;;5.1;;
60718;SDS011;46567;51.660;5.824;2023-11-21T21:02:06;9.4;;;5.1;;
60718;SDS011;46567;51.660;5.824;2023-11-21T21:07:06;8.7;;;5.0;;
60718;SDS011;46567;51.660;5.824;2023-11-21T21:12:06;10.0;;;5.2;;
60718;SDS011;46567;51.660;5.824;2023-11-21T21:17:06;10.4;;;5.3;;
60718;SDS011;46567;51.660;5.824;2023-11-21T21:22:06;8.8;;;4.6;;
60718;SDS011;46567;51.660;5.824;2023-11-21T21:27:06;10.3;;;5.2;;
60718;SDS011;46567;51.660;5.824;2023-11-21T21:32:06;10.6;;;4.8;;
60718;SDS011;46567;51.660;5.824;2023-11-21T21:37:06;9.8;;;4.6;;
60718;SDS011;46567;51.660;5.824;2023-11-21T21:42:06;9.6;;;4.4;;
60718;SDS011;46567;51.660;5.824;2023-11-21T21:47:06;9.3;;;5.0;;
60718;SDS011;46567;51.660;5.824;2023-11-21T21:52:06;9.3;;;5.0;;
60718;SDS011;46567;51.660;5.824;2023-11-21T21:57:06;9.6;;;4.9;;
60718;SDS011;46567;51.660;5.824;2023-11-21T22:02:06;11.0;;;4.8;;
60718;SDS011;46567;51.660;5.824;2023-11-21T22:07:06;8.0;;;4.6;;
60718;SDS011;46567;51.660;5.824;2023-11-21T22:12:06;12.3;;;4.6;;
60718;SDS011;46567;51.660;5.824;2023-11-21T22:17:06;12.0;;;5.6;;
60718;SDS011;46567;51.660;5.824;2023-11-21T22:22:06;12.0;;;5.6;;
60718;SDS011;46567;51.660;5.824;2023-11-21T22:27:06;12.0;;;6.0;;
60718;SDS011;46567;51.660;5.824;2023-11-21T22:32:06;12.9;;;5.5;;
60718;SDS011;46567;51.660;5.824;2023-11-21T22:37:06;11.6;;;5.1;;
60718;SDS011;46567;51.660;5.824;2023-11-21T22:42:06;14.5;;;5.2;;
60718;SDS011;46567;51.660;5.824;2023-11-21T22:47:06;13.1;;;5.6;;
60718;SDS011;46567;51.660;5.824;2023-11-21T22:52:06;14.6;;;5.6;;
60718;SDS011;46567;51.660;5.824;2023-11-21T22:57:06;9.1;;;5.0;;
60718;SDS011;46567;51.660;5.824;2023-11-21T23:02:06;13.0;;;5.1;;
60718;SDS011;46567;51.660;5.824;2023-11-21T23:07:06;11.8;;;4.8;;
60718;SDS011;46567;51.660;5.824;2023-11-21T23:12:06;10.9;;;4.9;;
60718;SDS011;46567;51.660;5.824;2023-11-21T23:17:06;10.7;;;5.7;;
60718;SDS011;46567;51.660;5.824;2023-11-21T23:22:06;11.8;;;5.0;;
60718;SDS011;46567;51.660;5.824;2023-11-21T23:27:06;8.2;;;4.5;;
60718;SDS011;46567;51.660;5.824;2023-11-21T23:32:06;11.1;;;5.4;;
60718;SDS011;46567;51.660;5.824;2023-11-21T23:37:06;11.7;;;5.1;;
60718;SDS011;46567;51.660;5.824;2023-11-21T23:42:06;13.5;;;5.1;;
60718;SDS011;46567;51.660;5.824;2023-11-21T23:47:06;10.6;;;5.1;;
60718;SDS011;46567;51.660;5.824;2023-11-21T23:52:06;14.0;;;6.2;;
60718;SDS011;46567;51.660;5.824;2023-11-21T23:57:06;10.7;;;5.1;;
